Time;durP1;ratioP1;P1;durP2;ratioP2;P2;SDS_P1;SDS_P2;PMS_P1;PMS_P2;Temp;Humidity;BMP_temperature;BMP_pressure;BME280_temperature;BME280_humidity;BME280_pressure;Samples;Min_cycle;Max_cycle;Signal;HPM_P1;HPM_P2
2020/12/01 00:01:51;;;;;;;111.82;40.80;;;7.50;99.90;;;;;;5050534;28;20466;-77
2020/12/01 00:04:18;;;;;;;103.47;39.35;;;7.60;99.90;;;;;;5051968;28;20536;-76
2020/12/01 00:06:44;;;;;;;116.25;43.72;;;7.60;99.90;;;;;;5057062;28;20477;-76
2020/12/01 00:09:10;;;;;;;85.10;36.80;;;7.60;99.90;;;;;;5049460;28;20057;-76
2020/12/01 00:11:36;;;;;;;116.57;44.22;;;7.60;99.90;;;;;;5050303;28;20082;-77
2020/12/01 00:14:02;;;;;;;112.60;42.17;;;7.60;99.90;;;;;;5056656;28;20025;-77
2020/12/01 00:16:28;;;;;;;124.05;44.55;;;7.70;99.90;;;;;;5056826;28;20028;-77
2020/12/01 00:18:54;;;;;;;115.82;41.47;;;7.70;99.90;;;;;;5062502;28;20033;-77
2020/12/01 00:21:20;;;;;;;105.57;40.70;;;7.70;99.90;;;;;;5054176;28;20078;-77
2020/12/01 00:23:47;;;;;;;111.57;41.20;;;7.70;99.90;;;;;;5054128;28;20033;-77
2020/12/01 00:26:20;;;;;;;118.53;41.20;;;7.70;99.90;;;;;;5054144;28;20027;-75
2020/12/01 00:28:46;;;;;;;115.57;40.78;;;7.80;99.90;;;;;;5055877;28;20037;-76
2020/12/01 00:31:12;;;;;;;110.05;41.22;;;7.80;99.90;;;;;;5056205;28;20036;-76
2020/12/01 00:33:38;;;;;;;113.40;40.78;;;7.80;99.90;;;;;;5062611;28;20033;-77
2020/12/01 00:36:05;;;;;;;118.97;41.90;;;7.80;99.90;;;;;;5054344;28;20029;-76
2020/12/01 00:38:30;;;;;;;119.43;41.33;;;7.80;99.90;;;;;;5053451;28;20037;-76
2020/12/01 00:40:56;;;;;;;112.55;41.20;;;7.80;99.90;;;;;;5053464;28;20063;-76
2020/12/01 00:43:22;;;;;;;103.53;40.05;;;7.80;99.90;;;;;;5055101;28;20048;-77
2020/12/01 00:45:48;;;;;;;119.03;43.88;;;7.90;99.90;;;;;;5057962;28;20025;-77
2020/12/01 00:48:15;;;;;;;96.40;39.33;;;7.90;99.90;;;;;;5062777;28;20025;-76
2020/12/01 00:50:41;;;;;;;107.82;38.95;;;7.90;99.90;;;;;;5055247;28;20072;-77
2020/12/01 00:53:07;;;;;;;98.68;39.00;;;7.90;99.90;;;;;;5055970;28;20385;-77
2020/12/01 00:55:33;;;;;;;111.95;41.13;;;7.90;99.90;;;;;;5054072;28;20021;-76
2020/12/01 00:57:59;;;;;;;117.75;42.53;;;7.90;99.90;;;;;;5052975;28;20363;-76
2020/12/01 01:00:27;;;;;;;110.97;39.50;;;7.80;99.90;;;;;;5053582;28;20029;-76
2020/12/01 01:02:53;;;;;;;106.90;38.38;;;7.90;99.90;;;;;;5053747;28;20082;-76
2020/12/01 01:05:19;;;;;;;115.35;40.55;;;7.70;99.90;;;;;;5053255;28;20021;-75
2020/12/01 01:07:45;;;;;;;108.75;39.00;;;7.70;99.90;;;;;;5054880;28;20032;-75
2020/12/01 01:10:24;;;;;;;111.13;39.15;;;7.80;99.90;;;;;;5054975;28;20044;-76
2020/12/01 01:12:49;;;;;;;100.07;36.13;;;7.80;99.90;;;;;;5055246;28;20070;-76
2020/12/01 01:15:15;;;;;;;86.88;33.58;;;7.80;99.90;;;;;;5051686;28;20037;-76
2020/12/01 01:17:41;;;;;;;64.50;26.05;;;7.80;99.90;;;;;;5054933;28;20052;-76
2020/12/01 01:20:09;;;;;;;53.88;22.88;;;7.80;99.90;;;;;;5055066;28;20435;-76
2020/12/01 01:22:34;;;;;;;57.42;24.13;;;7.90;99.90;;;;;;5055748;28;20025;-76
2020/12/01 01:25:00;;;;;;;54.20;22.65;;;8.00;99.90;;;;;;5049960;28;20163;-76
2020/12/01 01:27:26;;;;;;;54.08;19.70;;;8.10;99.90;;;;;;5052012;28;20017;-76
2020/12/01 01:29:51;;;;;;;57.58;20.85;;;8.10;99.90;;;;;;5053344;28;20048;-76
2020/12/01 01:32:17;;;;;;;41.90;17.95;;;8.20;99.90;;;;;;5054140;28;20028;-76
2020/12/01 01:34:43;;;;;;;46.92;18.75;;;8.20;99.90;;;;;;5053592;28;20131;-76
2020/12/01 01:37:09;;;;;;;47.08;18.38;;;8.20;99.90;;;;;;5061892;28;20021;-77
2020/12/01 01:39:34;;;;;;;37.13;16.42;;;8.30;99.90;;;;;;5062166;28;20041;-76
2020/12/01 01:42:05;;;;;;;32.10;13.38;;;8.30;99.90;;;;;;5062089;28;20044;-76
2020/12/01 01:44:31;;;;;;;29.40;10.95;;;8.20;99.90;;;;;;5059782;28;20021;-76
2020/12/01 01:47:04;;;;;;;26.70;10.93;;;8.30;99.90;;;;;;5055300;28;20024;-76
2020/12/01 01:49:39;;;;;;;36.95;11.40;;;8.40;99.90;;;;;;5058481;28;20024;-76
2020/12/01 01:52:17;;;;;;;31.73;10.70;;;8.50;99.90;;;;;;5056945;28;20044;-76
2020/12/01 01:54:46;;;;;;;29.02;11.60;;;8.50;99.90;;;;;;5059244;28;20067;-76
2020/12/01 01:57:12;;;;;;;38.13;11.00;;;8.50;99.90;;;;;;5055094;28;20079;-76
2020/12/01 01:59:39;;;;;;;28.25;9.15;;;8.50;99.90;;;;;;5055270;28;20482;-76
2020/12/01 02:02:05;;;;;;;21.48;7.75;;;8.50;99.90;;;;;;5056254;28;20500;-76
2020/12/01 02:04:31;;;;;;;31.58;7.78;;;8.50;99.90;;;;;;5059283;28;20110;-76
2020/12/01 02:07:04;;;;;;;24.63;7.75;;;8.60;99.90;;;;;;5053815;28;20462;-76
2020/12/01 02:09:49;;;;;;;24.60;7.35;;;8.60;99.90;;;;;;5056178;28;20055;-76
2020/12/01 02:12:17;;;;;;;24.75;7.68;;;8.60;99.90;;;;;;5060273;28;20040;-76
2020/12/01 02:15:05;;;;;;;30.42;7.53;;;8.70;99.90;;;;;;5057174;28;20107;-76
2020/12/01 02:17:33;;;;;;;33.55;8.35;;;8.70;99.90;;;;;;5058279;28;20024;-75
2020/12/01 02:20:09;;;;;;;29.08;6.88;;;8.80;99.90;;;;;;5057390;28;20470;-75
2020/12/01 02:22:35;;;;;;;26.30;6.22;;;8.70;99.90;;;;;;5058326;28;20032;-76
2020/12/01 02:25:01;;;;;;;28.58;7.20;;;8.70;99.90;;;;;;5055962;28;20033;-77
2020/12/01 02:27:27;;;;;;;25.98;5.75;;;8.70;99.90;;;;;;5055391;28;20146;-76
2020/12/01 02:29:57;;;;;;;30.20;5.50;;;8.80;99.90;;;;;;5060831;28;20063;-77
2020/12/01 02:32:26;;;;;;;41.97;5.18;;;8.70;99.90;;;;;;5055071;28;20482;-76
2020/12/01 02:34:54;;;;;;;29.70;4.70;;;8.70;99.90;;;;;;5051812;28;20100;-77
2020/12/01 02:37:23;;;;;;;26.30;4.72;;;8.70;99.90;;;;;;5059267;28;20036;-77
2020/12/01 02:39:49;;;;;;;22.58;3.72;;;8.70;99.90;;;;;;5058986;28;20071;-76
2020/12/01 02:42:22;;;;;;;26.25;3.70;;;8.70;99.90;;;;;;5056010;28;20052;-76
2020/12/01 02:44:47;;;;;;;;;;;8.70;99.90;;;;;;5051852;28;20107;-74
2020/12/01 02:47:13;;;;;;;32.10;4.32;;;8.60;99.90;;;;;;5058248;28;19958;-76
2020/12/01 02:49:39;;;;;;;30.30;4.75;;;8.70;99.90;;;;;;5057829;28;20396;-76
2020/12/01 02:52:04;;;;;;;27.98;4.18;;;8.70;99.90;;;;;;5054121;28;20029;-76
2020/12/01 02:54:30;;;;;;;24.63;4.35;;;8.70;99.90;;;;;;5056277;28;20060;-76
2020/12/01 02:56:56;;;;;;;29.08;4.30;;;8.70;99.90;;;;;;5054546;28;20370;-76
2020/12/01 02:59:22;;;;;;;25.98;4.78;;;8.70;99.90;;;;;;5056556;28;20029;-76
2020/12/01 03:01:47;;;;;;;18.52;3.50;;;8.70;99.90;;;;;;5053735;28;20035;-76
2020/12/01 03:04:13;;;;;;;33.58;4.40;;;8.70;99.90;;;;;;5052789;28;20029;-76
2020/12/01 03:06:39;;;;;;;33.45;4.47;;;8.60;99.90;;;;;;5063439;28;20080;-76
2020/12/01 03:09:06;;;;;;;31.67;4.60;;;8.60;99.90;;;;;;5062400;28;20113;-76
2020/12/01 03:11:32;;;;;;;36.88;4.28;;;8.50;99.90;;;;;;5061807;28;20064;-76
2020/12/01 03:13:58;;;;;;;24.73;4.50;;;8.50;99.90;;;;;;5063295;28;20449;-76
2020/12/01 03:16:24;;;;;;;43.75;4.03;;;8.50;99.90;;;;;;5055353;28;20020;-76
2020/12/01 03:18:50;;;;;;;39.88;3.97;;;8.50;99.90;;;;;;5059502;28;20067;-76
2020/12/01 03:21:16;;;;;;;36.05;4.78;;;8.40;99.90;;;;;;5053344;28;20056;-76
2020/12/01 03:23:43;;;;;;;32.35;4.05;;;8.50;99.90;;;;;;5058853;28;20031;-76
2020/12/01 03:26:11;;;;;;;23.15;4.13;;;8.40;99.90;;;;;;5057872;28;20021;-76
2020/12/01 03:28:36;;;;;;;30.65;4.32;;;8.50;99.90;;;;;;5062799;28;20477;-76
2020/12/01 03:31:03;;;;;;;30.63;4.30;;;8.40;99.90;;;;;;5061181;28;20115;-76
2020/12/01 03:33:28;;;;;;;32.10;4.13;;;8.40;99.90;;;;;;5055058;28;20103;-76
2020/12/01 03:35:54;;;;;;;33.75;4.68;;;8.40;99.90;;;;;;5059664;28;20130;-76
2020/12/01 03:38:20;;;;;;;36.97;5.32;;;8.40;99.90;;;;;;5054643;28;20021;-76
2020/12/01 03:40:46;;;;;;;38.00;5.40;;;8.40;99.90;;;;;;5054069;28;20036;-76
2020/12/01 03:43:13;;;;;;;31.35;4.90;;;8.40;99.90;;;;;;5053634;28;20055;-76
2020/12/01 03:45:39;;;;;;;31.85;4.82;;;8.30;99.90;;;;;;5063200;28;20024;-76
2020/12/01 03:48:05;;;;;;;30.30;5.30;;;8.30;99.90;;;;;;5063482;28;20029;-76
2020/12/01 03:50:31;;;;;;;28.88;4.97;;;8.30;99.90;;;;;;5060663;28;20041;-76
2020/12/01 03:52:57;;;;;;;33.85;5.20;;;8.20;99.90;;;;;;5059302;28;20028;-76
2020/12/01 03:55:25;;;;;;;35.30;4.13;;;8.30;99.90;;;;;;5055498;28;20028;-76
2020/12/01 03:57:51;;;;;;;32.00;4.95;;;8.30;99.90;;;;;;5060969;28;20372;-77
2020/12/01 04:00:20;;;;;;;31.67;4.55;;;8.20;99.90;;;;;;5060350;28;20096;-76
2020/12/01 04:02:45;;;;;;;36.03;5.45;;;8.30;99.90;;;;;;5058183;28;20036;-77
2020/12/01 04:05:12;;;;;;;34.83;5.28;;;8.30;99.90;;;;;;5060632;28;20027;-76
2020/12/01 04:07:38;;;;;;;35.67;4.88;;;8.30;99.90;;;;;;5058479;28;20143;-77
2020/12/01 04:10:06;;;;;;;36.30;5.15;;;8.30;99.90;;;;;;5062604;28;20121;-76
2020/12/01 04:12:32;;;;;;;30.67;4.80;;;8.30;99.90;;;;;;5056084;28;20079;-76
2020/12/01 04:15:00;;;;;;;39.55;5.18;;;8.30;99.90;;;;;;5056879;28;20021;-76
2020/12/01 04:17:26;;;;;;;32.10;4.30;;;8.30;99.90;;;;;;5058581;28;20452;-77
2020/12/01 04:19:52;;;;;;;34.35;5.97;;;8.30;99.90;;;;;;5065416;28;20033;-77
2020/12/01 04:22:18;;;;;;;33.38;4.53;;;8.20;99.90;;;;;;5066591;28;20032;-76
2020/12/01 04:24:43;;;;;;;34.08;4.68;;;8.10;99.90;;;;;;5064819;28;20470;-77
2020/12/01 04:27:11;;;;;;;32.92;4.93;;;8.20;99.90;;;;;;5060937;28;20035;-76
2020/12/01 04:29:37;;;;;;;50.10;5.47;;;8.10;99.90;;;;;;5058409;28;20103;-76
2020/12/01 04:32:04;;;;;;;37.22;4.57;;;8.20;99.90;;;;;;5066245;28;20104;-77
2020/12/01 04:34:30;;;;;;;38.78;5.35;;;8.20;99.90;;;;;;5058362;28;20060;-76
2020/12/01 04:36:56;;;;;;;26.50;4.00;;;8.20;99.90;;;;;;5057272;28;20044;-76
2020/12/01 04:39:22;;;;;;;36.28;4.65;;;8.20;99.90;;;;;;5056438;28;20064;-77
2020/12/01 04:41:48;;;;;;;29.15;3.65;;;8.20;99.90;;;;;;5059796;28;20450;-76
2020/12/01 04:44:38;;;;;;;38.25;4.70;;;8.20;99.90;;;;;;5066419;28;20630;-77
2020/12/01 04:47:18;;;;;;;38.35;5.85;;;8.20;99.90;;;;;;5060461;28;20032;-77
2020/12/01 04:49:54;;;;;;;30.52;5.03;;;8.20;99.90;;;;;;5061295;28;20055;-77
2020/12/01 04:52:34;;;;;;;32.50;4.30;;;8.20;99.90;;;;;;5056684;28;20032;-77
2020/12/01 04:55:24;;;;;;;34.05;4.15;;;8.10;99.90;;;;;;5055442;28;20544;-77
2020/12/01 04:57:50;;;;;;;51.13;5.50;;;8.10;99.90;;;;;;5056740;28;20035;-76
2020/12/01 05:00:43;;;;;;;33.60;5.07;;;8.10;99.90;;;;;;5054723;28;20013;-76
2020/12/01 05:03:17;;;;;;;30.95;4.38;;;8.20;99.90;;;;;;5065301;28;20031;-77
2020/12/01 05:06:06;;;;;;;27.60;4.43;;;8.10;99.90;;;;;;5056212;28;20021;-77
2020/12/01 05:09:00;;;;;;;40.13;5.85;;;8.10;99.90;;;;;;5062542;28;20033;-77
2020/12/01 05:11:48;;;;;;;33.45;5.00;;;8.10;99.90;;;;;;5048168;28;20443;-76
2020/12/01 05:14:42;;;;;;;38.30;5.82;;;8.10;99.90;;;;;;5056537;28;20067;-76
2020/12/01 05:17:28;;;;;;;31.90;4.55;;;8.10;99.90;;;;;;5059145;28;20017;-76
2020/12/01 05:19:54;;;;;;;25.52;5.00;;;8.10;99.90;;;;;;5057625;28;20086;-76
2020/12/01 05:22:21;;;;;;;29.30;4.60;;;8.10;99.90;;;;;;5057027;28;20033;-76
2020/12/01 05:24:50;;;;;;;32.60;5.18;;;8.10;99.90;;;;;;5062182;28;20039;-76
2020/12/01 05:27:22;;;;;;;23.85;4.45;;;8.10;99.90;;;;;;5055091;28;20028;-76
2020/12/01 05:30:05;;;;;;;24.80;4.38;;;8.10;99.90;;;;;;5062234;28;20686;-76
2020/12/01 05:32:35;;;;;;;25.92;5.07;;;8.10;99.90;;;;;;5052963;28;20071;-76
2020/12/01 05:35:22;;;;;;;24.77;4.63;;;8.00;99.90;;;;;;5057072;28;20029;-76
2020/12/01 05:37:53;;;;;;;31.95;4.80;;;8.00;99.90;;;;;;5060714;28;20021;-76
2020/12/01 05:40:19;;;;;;;26.38;4.72;;;8.00;99.90;;;;;;5053880;28;20036;-76
2020/12/01 05:42:46;;;;;;;28.60;4.55;;;8.10;99.90;;;;;;5057720;28;20103;-76
2020/12/01 05:45:38;;;;;;;30.05;4.97;;;8.10;99.90;;;;;;5057250;28;20032;-76
2020/12/01 05:48:42;;;;;;;18.15;4.47;;;8.20;99.90;;;;;;5055892;28;20033;-76
2020/12/01 05:51:13;;;;;;;28.42;5.10;;;8.10;99.90;;;;;;5061374;28;20583;-76
2020/12/01 05:53:40;;;;;;;20.23;4.22;;;8.20;99.90;;;;;;5053073;28;20477;-76
2020/12/01 05:56:18;;;;;;;30.83;6.03;;;8.20;99.90;;;;;;5062281;28;20016;-76
2020/12/01 05:58:53;;;;;;;27.13;4.88;;;8.10;99.90;;;;;;5054257;28;20017;-76
2020/12/01 06:01:19;;;;;;;28.92;5.70;;;8.10;99.90;;;;;;5057029;28;20039;-76
2020/12/01 06:03:58;;;;;;;27.10;6.20;;;8.20;99.90;;;;;;5061830;28;20482;-76
2020/12/01 06:06:30;;;;;;;33.15;7.13;;;8.20;99.90;;;;;;5053212;28;20021;-76
2020/12/01 06:09:01;;;;;;;36.38;6.80;;;8.20;99.90;;;;;;5065324;28;20025;-76
2020/12/01 06:11:38;;;;;;;39.33;6.82;;;8.30;99.90;;;;;;5055049;28;20446;-76
2020/12/01 06:14:18;;;;;;;22.00;6.40;;;8.20;99.90;;;;;;5056802;28;20027;-76
2020/12/01 06:17:06;;;;;;;31.10;6.68;;;8.30;99.90;;;;;;5058366;28;20116;-76
2020/12/01 06:19:38;;;;;;;31.63;7.05;;;8.30;99.90;;;;;;5056507;28;20106;-76
2020/12/01 06:22:36;;;;;;;34.67;8.65;;;8.40;99.90;;;;;;5054685;28;20108;-76
2020/12/01 06:25:20;;;;;;;31.52;8.38;;;8.40;99.90;;;;;;5053329;28;20171;-76
2020/12/01 06:28:00;;;;;;;49.45;10.82;;;8.50;99.90;;;;;;5057101;28;20029;-76
2020/12/01 06:31:01;;;;;;;48.60;11.30;;;8.50;99.90;;;;;;5055239;28;20037;-76
2020/12/01 06:33:57;;;;;;;36.78;10.35;;;8.40;99.90;;;;;;5036158;28;20776;-76
2020/12/01 06:37:03;;;;;;;51.38;13.32;;;8.40;99.90;;;;;;5059174;28;20025;-75
2020/12/01 06:39:47;;;;;;;46.15;13.73;;;8.40;99.90;;;;;;5052245;28;20359;-76
2020/12/01 06:42:24;;;;;;;40.88;12.93;;;8.40;99.90;;;;;;5065978;28;20029;-76
2020/12/01 06:45:18;;;;;;;62.03;14.40;;;8.40;99.90;;;;;;5055144;28;20112;-76
2020/12/01 06:47:45;;;;;;;38.15;13.00;;;8.50;99.90;;;;;;5055452;28;20055;-76
2020/12/01 06:50:17;;;;;;;52.30;14.90;;;8.50;99.90;;;;;;5052457;28;20017;-76
2020/12/01 06:52:53;;;;;;;53.13;15.88;;;8.50;99.90;;;;;;5067375;28;20037;-76
2020/12/01 06:55:49;;;;;;;54.97;17.10;;;8.50;99.90;;;;;;5052998;28;20017;-76
2020/12/01 06:58:31;;;;;;;43.45;14.73;;;8.60;99.90;;;;;;5057575;28;20413;-76
2020/12/01 07:01:11;;;;;;;57.63;16.33;;;8.50;99.90;;;;;;5054308;28;20021;-77
2020/12/01 07:03:38;;;;;;;49.33;16.00;;;8.60;99.90;;;;;;5052338;28;20612;-76
2020/12/01 07:06:10;;;;;;;45.85;17.13;;;8.60;99.90;;;;;;5057609;28;20108;-76
2020/12/01 07:08:36;;;;;;;45.87;17.57;;;8.60;99.90;;;;;;5051363;28;20079;-76
2020/12/01 07:11:11;;;;;;;43.80;16.45;;;8.60;99.90;;;;;;5052808;28;20029;-76
2020/12/01 07:13:53;;;;;;;47.35;16.73;;;8.60;99.90;;;;;;5052719;28;20033;-76
2020/12/01 07:16:37;;;;;;;49.20;17.40;;;8.70;99.90;;;;;;5056340;28;20052;-76
2020/12/01 07:19:16;;;;;;;45.00;17.25;;;8.70;99.90;;;;;;5053782;28;20458;-76
2020/12/01 07:22:07;;;;;;;40.15;17.33;;;8.70;99.90;;;;;;5065195;28;20395;-76
2020/12/01 07:24:51;;;;;;;44.47;19.05;;;8.70;99.90;;;;;;5060847;28;20032;-75
2020/12/01 07:27:32;;;;;;;47.10;22.23;;;8.80;99.90;;;;;;5053780;28;20378;-76
2020/12/01 07:30:04;;;;;;;46.45;17.23;;;8.90;99.90;;;;;;5048735;28;22176;-76
2020/12/01 07:32:50;;;;;;;53.03;18.23;;;8.90;99.90;;;;;;5049014;28;20042;-76
2020/12/01 07:35:31;;;;;;;48.05;18.10;;;9.00;99.90;;;;;;5054500;28;20059;-76
2020/12/01 07:38:20;;;;;;;54.40;19.20;;;9.00;99.90;;;;;;5049345;28;20029;-76
2020/12/01 07:40:52;;;;;;;55.42;19.98;;;9.00;99.90;;;;;;5055202;28;20401;-76
2020/12/01 07:43:21;;;;;;;48.75;18.98;;;9.00;99.90;;;;;;5050806;28;20068;-76
2020/12/01 07:45:48;;;;;;;45.05;17.40;;;9.00;99.90;;;;;;5048374;28;20031;-77
2020/12/01 07:48:17;;;;;;;57.00;20.10;;;9.10;99.90;;;;;;5048480;28;20032;-76
2020/12/01 07:50:43;;;;;;;65.75;21.63;;;9.10;99.90;;;;;;5049748;28;20029;-76
2020/12/01 07:53:15;;;;;;;63.78;22.52;;;9.10;99.90;;;;;;5050460;28;20023;-76
2020/12/01 07:56:00;;;;;;;66.68;24.15;;;9.20;99.90;;;;;;5051242;28;20694;-77
2020/12/01 07:58:29;;;;;;;50.65;21.00;;;9.20;99.90;;;;;;5051093;28;20143;-76
2020/12/01 08:01:00;;;;;;;65.22;24.20;;;9.20;99.90;;;;;;5048315;28;20029;-76
2020/12/01 08:03:32;;;;;;;58.55;21.90;;;9.30;99.90;;;;;;5049089;28;20017;-76
2020/12/01 08:06:04;;;;;;;53.35;20.05;;;9.30;99.90;;;;;;5051251;28;20155;-75
2020/12/01 08:08:36;;;;;;;53.40;19.92;;;9.30;99.90;;;;;;5049711;28;20048;-76
2020/12/01 08:11:05;;;;;;;49.47;17.90;;;9.30;99.90;;;;;;5051217;28;20037;-76
2020/12/01 08:13:33;;;;;;;46.42;17.17;;;9.30;99.90;;;;;;5051168;28;20051;-75
2020/12/01 08:16:01;;;;;;;39.30;14.85;;;9.40;99.90;;;;;;5048864;28;20035;-76
2020/12/01 08:18:28;;;;;;;45.70;15.50;;;9.40;99.90;;;;;;5053220;28;20044;-75
2020/12/01 08:20:54;;;;;;;31.50;13.48;;;9.40;99.90;;;;;;5059055;28;20027;-75
2020/12/01 08:23:25;;;;;;;37.70;13.18;;;9.50;99.90;;;;;;5050274;28;20021;-75
2020/12/01 08:26:17;;;;;;;37.88;13.50;;;9.40;99.90;;;;;;5053458;28;20108;-75
2020/12/01 08:28:47;;;;;;;33.30;12.85;;;9.50;99.90;;;;;;5049987;28;20037;-75
2020/12/01 08:31:31;;;;;;;32.25;10.70;;;9.40;99.90;;;;;;5050996;28;20037;-76
2020/12/01 08:34:05;;;;;;;33.30;10.85;;;9.40;99.90;;;;;;5057862;28;20060;-75
2020/12/01 08:36:40;;;;;;;27.45;9.48;;;9.40;99.90;;;;;;5065417;28;20037;-75
2020/12/01 08:39:23;;;;;;;24.52;9.73;;;9.40;99.90;;;;;;5057136;28;20036;-73
2020/12/01 08:41:54;;;;;;;;;;;9.40;99.90;;;;;;5063436;28;20366;-72
2020/12/01 08:44:43;;;;;;;18.65;7.00;;;9.30;99.90;;;;;;5057070;28;20285;-80
2020/12/01 08:47:09;;;;;;;16.15;6.95;;;9.20;99.90;;;;;;5057433;28;20036;-77
2020/12/01 08:49:47;;;;;;;16.77;6.07;;;9.20;99.90;;;;;;5058169;28;20857;-76
2020/12/01 08:52:27;;;;;;;31.67;6.28;;;9.30;99.90;;;;;;5059274;28;20104;-75
2020/12/01 08:54:59;;;;;;;15.73;5.82;;;9.30;99.90;;;;;;5058838;28;20037;-81
2020/12/01 08:57:33;;;;;;;;;;;9.30;99.90;;;;;;5057637;28;20036;-73
2020/12/01 09:00:13;;;;;;;28.48;5.53;;;9.30;99.90;;;;;;5056331;28;20400;-80
2020/12/01 09:02:50;;;;;;;36.55;6.95;;;9.40;99.90;;;;;;5062953;28;20111;-80
2020/12/01 09:05:36;;;;;;;35.30;4.82;;;9.40;99.90;;;;;;5060074;28;20025;-78
2020/12/01 09:11:03;;;;;;;49.95;6.22;;;9.30;99.90;;;;;;5059092;28;20462;-75
2020/12/01 09:13:31;;;;;;;47.65;6.25;;;9.30;99.90;;;;;;5056579;28;20017;-74
2020/12/01 09:23:43;;;;;;;48.05;7.40;;;9.30;99.90;;;;;;5045801;28;20114;-75
2020/12/01 09:26:20;;;;;;;53.15;6.78;;;9.30;99.90;;;;;;5055152;28;20102;-74
2020/12/01 09:28:52;;;;;;;43.85;7.45;;;9.30;99.90;;;;;;5059632;28;20029;-74
2020/12/01 09:31:19;;;;;;;57.53;6.72;;;9.40;99.90;;;;;;5056913;28;20032;-74
2020/12/01 09:33:44;;;;;;;45.08;6.07;;;9.40;99.90;;;;;;5056311;28;20021;-74
2020/12/01 09:36:22;;;;;;;49.08;6.95;;;9.30;99.90;;;;;;5057666;28;20143;-76
2020/12/01 09:38:49;;;;;;;38.00;5.85;;;9.30;99.90;;;;;;5057601;28;20024;-75
2020/12/01 09:41:18;;;;;;;50.28;6.85;;;9.40;99.90;;;;;;5058928;28;20024;-75
2020/12/01 09:46:20;;;;;;;64.13;8.27;;;9.40;99.90;;;;;;5057494;28;20037;-75
2020/12/01 09:48:47;;;;;;;46.63;5.50;;;9.40;99.90;;;;;;5058430;28;20651;-74
2020/12/01 09:51:14;;;;;;;39.83;5.22;;;9.40;99.90;;;;;;5057910;28;20029;-75
2020/12/01 09:54:03;;;;;;;36.05;6.53;;;9.40;99.90;;;;;;5055391;28;20035;-75
2020/12/01 09:59:41;;;;;;;40.30;6.18;;;9.50;99.90;;;;;;5054977;28;20329;-76
2020/12/01 10:07:46;;;;;;;49.42;6.57;;;9.50;99.90;;;;;;5053713;28;20367;-72
2020/12/01 10:12:57;;;;;;;41.83;5.75;;;9.50;99.90;;;;;;5051323;28;20090;-73
2020/12/01 10:29:55;;;;;;;40.92;4.93;;;9.60;99.90;;;;;;5051780;28;20175;-73
2020/12/01 10:36:36;;;;;;;45.00;5.80;;;9.70;99.90;;;;;;5055262;28;20041;-73
2020/12/01 10:39:03;;;;;;;45.65;5.57;;;9.70;99.90;;;;;;5057952;28;20021;-73
2020/12/01 10:41:31;;;;;;;38.13;5.80;;;9.80;99.90;;;;;;5054981;28;20033;-73
2020/12/01 10:43:57;;;;;;;35.45;6.25;;;9.70;99.90;;;;;;5061485;28;20480;-73
2020/12/01 10:46:23;;;;;;;40.70;6.70;;;9.70;99.90;;;;;;5059357;28;20075;-74
2020/12/01 10:48:48;;;;;;;37.42;6.05;;;9.60;99.90;;;;;;5056957;28;20025;-74
2020/12/01 10:51:14;;;;;;;39.45;5.57;;;9.60;99.90;;;;;;5062749;28;20047;-73
2020/12/01 10:53:40;;;;;;;40.72;5.53;;;9.70;99.90;;;;;;5058707;28;20036;-74
2020/12/01 10:56:06;;;;;;;48.80;6.20;;;9.70;99.90;;;;;;5056810;28;20033;-73
2020/12/01 10:58:31;;;;;;;37.92;6.13;;;9.70;99.90;;;;;;5061130;28;20032;-75
2020/12/01 11:00:57;;;;;;;42.22;5.30;;;9.80;99.90;;;;;;5061925;28;20074;-73
2020/12/01 11:03:22;;;;;;;37.90;5.80;;;9.80;99.90;;;;;;5054353;28;20386;-74
2020/12/01 11:05:48;;;;;;;33.72;5.22;;;9.80;99.90;;;;;;5058734;28;20103;-73
2020/12/01 11:08:13;;;;;;;41.42;6.13;;;9.90;99.90;;;;;;5065658;28;20016;-73
2020/12/01 11:10:40;;;;;;;54.00;7.00;;;9.90;99.90;;;;;;5066423;28;20040;-73
2020/12/01 11:13:08;;;;;;;32.55;5.30;;;9.90;99.90;;;;;;5061655;28;20110;-74
2020/12/01 11:15:33;;;;;;;42.35;5.88;;;9.90;99.90;;;;;;5055689;28;20021;-73
2020/12/01 11:17:59;;;;;;;44.10;5.43;;;9.90;99.90;;;;;;5058128;28;20027;-74
2020/12/01 11:20:24;;;;;;;37.38;5.97;;;9.90;99.90;;;;;;5056601;28;20039;-73
2020/12/01 11:22:51;;;;;;;38.00;6.45;;;9.90;99.90;;;;;;5057194;28;20127;-74
2020/12/01 11:25:18;;;;;;;39.15;7.38;;;9.90;99.90;;;;;;5051782;28;20047;-73
2020/12/01 11:27:44;;;;;;;36.35;5.40;;;9.90;99.90;;;;;;5058286;28;20025;-73
2020/12/01 11:30:10;;;;;;;33.60;5.43;;;9.90;99.90;;;;;;5065386;28;20374;-73
2020/12/01 11:32:36;;;;;;;42.40;6.25;;;9.90;99.90;;;;;;5058519;28;20393;-73
2020/12/01 11:35:02;;;;;;;36.30;5.80;;;10.00;99.90;;;;;;5058678;28;20032;-73
2020/12/01 11:37:28;;;;;;;22.92;4.78;;;10.00;99.90;;;;;;5065220;28;20024;-73
2020/12/01 11:39:54;;;;;;;39.05;6.03;;;10.00;99.90;;;;;;5062825;28;20027;-73
2020/12/01 11:42:19;;;;;;;35.05;6.13;;;10.10;99.90;;;;;;5063484;28;20513;-73
2020/12/01 11:44:45;;;;;;;42.60;5.50;;;10.10;99.90;;;;;;5052835;28;20025;-74
2020/12/01 11:47:10;;;;;;;37.22;5.30;;;10.10;99.90;;;;;;5054932;28;20024;-74
2020/12/01 11:49:36;;;;;;;33.35;4.80;;;10.20;99.90;;;;;;5054119;28;20538;-74
2020/12/01 11:52:02;;;;;;;33.70;5.43;;;10.10;99.90;;;;;;5053528;28;20175;-73
2020/12/01 11:54:28;;;;;;;34.42;5.82;;;10.10;99.90;;;;;;5050556;28;20519;-74
2020/12/01 11:56:53;;;;;;;30.88;4.40;;;10.10;99.90;;;;;;5057299;28;20032;-73
2020/12/01 11:59:19;;;;;;;30.75;5.10;;;10.10;99.90;;;;;;5058784;28;20028;-73
2020/12/01 12:01:46;;;;;;;33.92;5.70;;;10.20;99.90;;;;;;5058613;28;20497;-73
2020/12/01 12:04:11;;;;;;;35.25;5.10;;;10.30;99.90;;;;;;5061731;28;20473;-73
2020/12/01 12:06:37;;;;;;;35.58;4.75;;;10.30;99.90;;;;;;5051441;28;20029;-73
2020/12/01 12:09:07;;;;;;;35.53;6.30;;;10.30;99.90;;;;;;5055064;28;20389;-73
2020/12/01 12:11:33;;;;;;;32.97;5.47;;;10.30;99.90;;;;;;5056894;28;20052;-73
2020/12/01 12:13:59;;;;;;;30.27;4.45;;;10.20;99.90;;;;;;5066358;28;20021;-74
2020/12/01 12:16:26;;;;;;;30.00;5.00;;;10.30;99.90;;;;;;5065854;28;20031;-72
2020/12/01 12:18:52;;;;;;;30.42;4.93;;;10.20;99.90;;;;;;5065072;28;20094;-74
2020/12/01 12:21:20;;;;;;;29.67;4.88;;;10.10;99.90;;;;;;5058513;28;20481;-75
2020/12/01 12:23:47;;;;;;;25.83;4.75;;;10.20;99.90;;;;;;5064961;28;20053;-73
2020/12/01 12:26:13;;;;;;;29.55;5.13;;;10.20;99.90;;;;;;5058805;28;20017;-73
2020/12/01 12:28:39;;;;;;;31.92;5.25;;;10.20;99.90;;;;;;5066139;28;20028;-72
2020/12/01 12:31:06;;;;;;;30.80;5.18;;;10.20;99.90;;;;;;5063109;28;20025;-75
2020/12/01 12:33:31;;;;;;;28.33;4.80;;;10.20;99.90;;;;;;5064387;28;20025;-73
2020/12/01 12:35:58;;;;;;;38.30;5.10;;;10.20;99.90;;;;;;5057305;28;20040;-73
2020/12/01 12:38:24;;;;;;;32.78;5.47;;;10.20;99.90;;;;;;5063074;28;20047;-75
2020/12/01 12:40:51;;;;;;;32.38;4.90;;;10.10;99.90;;;;;;5060950;28;20021;-76
2020/12/01 12:43:21;;;;;;;26.92;3.85;;;10.20;99.90;;;;;;5055748;28;20027;-75
2020/12/01 12:45:47;;;;;;;27.88;4.78;;;10.20;99.90;;;;;;5056695;28;20528;-73
2020/12/01 12:48:13;;;;;;;30.45;4.18;;;10.20;99.90;;;;;;5059979;28;20017;-73
2020/12/01 12:50:39;;;;;;;28.67;4.00;;;10.20;99.90;;;;;;5055747;28;20493;-72
2020/12/01 12:53:05;;;;;;;27.02;4.18;;;10.20;99.90;;;;;;5054885;28;20021;-76
2020/12/01 12:55:30;;;;;;;32.35;5.40;;;10.20;99.90;;;;;;5058894;28;20116;-75
2020/12/01 12:57:59;;;;;;;27.40;4.75;;;10.20;99.90;;;;;;5053688;28;20478;-76
2020/12/01 13:00:26;;;;;;;35.00;4.22;;;10.20;99.90;;;;;;5057313;28;20028;-76
2020/12/01 13:02:51;;;;;;;23.83;4.75;;;10.20;99.90;;;;;;5057837;28;20025;-75
2020/12/01 13:05:17;;;;;;;30.17;4.80;;;10.20;99.90;;;;;;5054818;28;20031;-75
2020/12/01 13:07:43;;;;;;;28.52;4.35;;;10.20;99.90;;;;;;5057410;28;20028;-76
2020/12/01 13:10:09;;;;;;;25.50;4.70;;;10.20;99.90;;;;;;5055113;28;20398;-76
2020/12/01 13:12:35;;;;;;;26.38;4.78;;;10.30;99.90;;;;;;5057948;28;20440;-76
2020/12/01 13:15:00;;;;;;;29.15;5.15;;;10.30;99.90;;;;;;5056670;28;20024;-75
2020/12/01 13:17:26;;;;;;;26.95;4.57;;;10.30;99.90;;;;;;5054798;28;20021;-76
2020/12/01 13:19:51;;;;;;;25.58;4.72;;;10.20;99.90;;;;;;5054220;28;20028;-76
2020/12/01 13:22:17;;;;;;;32.47;4.07;;;10.30;99.90;;;;;;5056793;28;20029;-76
2020/12/01 13:24:43;;;;;;;26.85;4.93;;;10.30;99.90;;;;;;5057374;28;20025;-75
2020/12/01 13:27:08;;;;;;;26.45;4.28;;;10.30;99.90;;;;;;5057697;28;20064;-74
2020/12/01 13:29:34;;;;;;;31.33;4.78;;;10.30;99.90;;;;;;5056264;28;20122;-74
2020/12/01 13:32:00;;;;;;;26.17;4.50;;;10.30;99.90;;;;;;5057088;28;20032;-73
2020/12/01 13:34:25;;;;;;;29.92;4.82;;;10.30;99.90;;;;;;5060475;28;20033;-75
2020/12/01 13:36:56;;;;;;;30.33;5.13;;;10.30;99.90;;;;;;5063667;28;20108;-74
2020/12/01 13:39:22;;;;;;;24.33;4.45;;;10.40;99.90;;;;;;5065013;28;20046;-77
2020/12/01 13:41:49;;;;;;;31.65;5.70;;;10.40;99.90;;;;;;5061185;28;20032;-77
2020/12/01 13:44:15;;;;;;;23.75;4.63;;;10.30;99.90;;;;;;5057792;28;20020;-76